createdAt,value
2019-03-31T00:00:35.766Z,9.70
2019-03-31T00:04:39.317Z,9.60
2019-03-31T00:08:45.361Z,9.60
2019-03-31T00:12:52.067Z,9.30
2019-03-31T00:16:57.890Z,9.30
2019-03-31T00:21:01.458Z,9.10
2019-03-31T00:25:07.869Z,9.10
2019-03-31T00:29:14.247Z,8.90
2019-03-31T00:33:17.743Z,9.00
2019-03-31T00:37:21.341Z,9.10
2019-03-31T00:41:24.907Z,9.30
2019-03-31T00:45:30.670Z,9.20
2019-03-31T00:49:36.554Z,9.00
2019-03-31T00:53:43.436Z,8.90
2019-03-31T00:57:47.662Z,8.80
2019-03-31T01:02:00.694Z,9.00
2019-03-31T01:06:04.993Z,9.00
2019-03-31T01:10:16.469Z,8.90
2019-03-31T01:14:22.510Z,9.10
2019-03-31T01:18:26.626Z,8.80
2019-03-31T01:22:30.284Z,8.70
2019-03-31T01:26:37.023Z,8.80
2019-03-31T01:30:40.782Z,8.50
2019-03-31T01:34:46.967Z,8.80
2019-03-31T01:38:50.650Z,8.80
2019-03-31T01:42:54.159Z,8.90
2019-03-31T01:47:04.912Z,9.00
2019-03-31T01:51:08.785Z,8.70
2019-03-31T01:55:31.491Z,8.80
2019-03-31T01:59:35.047Z,8.90
2019-03-31T02:03:38.723Z,8.90
2019-03-31T02:07:44.632Z,8.90
2019-03-31T02:11:48.186Z,9.00
2019-03-31T02:15:54.101Z,9.10
2019-03-31T02:20:05.434Z,9.20
2019-03-31T02:24:09.065Z,9.10
2019-03-31T02:28:12.686Z,9.30
2019-03-31T02:32:24.115Z,9.20
2019-03-31T02:36:21.578Z,9.40
2019-03-31T02:40:28.219Z,9.30
2019-03-31T02:44:31.768Z,9.50
2019-03-31T02:48:35.354Z,9.50
2019-03-31T02:52:44.473Z,9.50
2019-03-31T02:56:48.400Z,9.40
2019-03-31T03:00:55.218Z,9.20
2019-03-31T03:05:17.780Z,9.20
2019-03-31T03:09:07.655Z,9.30
2019-03-31T03:13:13.937Z,9.30
2019-03-31T03:17:25.085Z,9.30
2019-03-31T03:21:28.592Z,9.20
2019-03-31T03:25:32.226Z,9.20
2019-03-31T03:29:35.850Z,9.20
2019-03-31T03:33:42.022Z,9.10
2019-03-31T03:37:48.124Z,9.10
2019-03-31T03:41:52.146Z,9.10
2019-03-31T03:45:58.350Z,9.10
2019-03-31T03:50:02.546Z,9.40
2019-03-31T03:54:06.629Z,9.20
2019-03-31T03:58:12.183Z,9.10
2019-03-31T04:02:16.161Z,9.10
2019-03-31T04:06:19.873Z,9.00
2019-03-31T04:11:21.149Z,8.70
2019-03-31T04:15:23.382Z,8.90
2019-03-31T04:19:34.179Z,9.00
2019-03-31T04:23:37.936Z,8.90
2019-03-31T04:27:44.994Z,8.70
2019-03-31T04:31:51.262Z,8.80
2019-03-31T04:35:55.015Z,8.80
2019-03-31T04:39:59.027Z,8.80
2019-03-31T04:44:02.969Z,8.70
2019-03-31T04:48:07.307Z,8.60
2019-03-31T04:52:11.321Z,8.50
2019-03-31T04:56:15.391Z,8.30
2019-03-31T05:00:19.742Z,8.20
2019-03-31T05:04:23.690Z,8.10
2019-03-31T05:08:31.742Z,8.20
2019-03-31T05:12:36.017Z,7.90
2019-03-31T05:16:44.342Z,8.00
2019-03-31T05:20:48.168Z,8.00
2019-03-31T05:24:54.455Z,8.00
2019-03-31T05:29:01.468Z,8.10
2019-03-31T05:33:05.702Z,8.10
2019-03-31T05:37:09.620Z,8.00
2019-03-31T05:41:19.954Z,7.70
2019-03-31T05:45:23.780Z,7.80
2019-03-31T05:49:33.604Z,7.80
2019-03-31T05:53:37.798Z,7.80
2019-03-31T05:57:42.255Z,7.90
2019-03-31T06:01:47.472Z,8.00
2019-03-31T06:05:51.319Z,7.80
2019-03-31T06:10:00.344Z,7.90
2019-03-31T06:14:07.534Z,7.60
2019-03-31T06:18:14.438Z,7.70
2019-03-31T06:22:21.427Z,7.80
2019-03-31T06:26:27.704Z,7.60
2019-03-31T06:30:31.935Z,7.70
2019-03-31T06:34:47.274Z,7.70
2019-03-31T06:38:44.331Z,7.80
2019-03-31T06:42:48.452Z,7.70
2019-03-31T06:46:54.654Z,8.10
2019-03-31T06:50:58.561Z,8.20
2019-03-31T06:55:02.974Z,8.30
2019-03-31T06:59:07.428Z,8.10
2019-03-31T07:03:11.698Z,8.00
2019-03-31T07:07:18.312Z,8.00
2019-03-31T07:11:22.334Z,8.00
2019-03-31T07:15:26.071Z,8.00
2019-03-31T07:19:30.152Z,8.10
2019-03-31T07:23:37.207Z,8.20
2019-03-31T07:27:41.348Z,8.40
2019-03-31T07:31:51.691Z,8.30
2019-03-31T07:35:57.931Z,8.50
2019-03-31T07:40:01.847Z,8.40
2019-03-31T07:44:09.323Z,8.50
2019-03-31T07:48:13.502Z,8.80
2019-03-31T07:52:20.460Z,8.60
2019-03-31T07:56:24.149Z,8.50
2019-03-31T08:00:29.821Z,8.60
2019-03-31T08:04:33.770Z,8.90
2019-03-31T08:08:37.307Z,9.00
2019-03-31T08:12:41.768Z,8.90
2019-03-31T08:16:47.660Z,9.00
2019-03-31T08:20:51.555Z,8.90
2019-03-31T08:24:55.387Z,8.80
2019-03-31T08:28:59.230Z,8.90
2019-03-31T08:33:03.054Z,8.90
2019-03-31T08:37:06.839Z,9.00
2019-03-31T08:41:11.074Z,9.20
2019-03-31T08:45:18.911Z,8.90
2019-03-31T08:49:25.963Z,9.00
2019-03-31T08:53:30.327Z,9.10
2019-03-31T08:57:34.573Z,9.00
2019-03-31T09:01:42.457Z,9.00
2019-03-31T09:06:00.579Z,9.10
2019-03-31T09:09:55.695Z,9.20
2019-03-31T09:13:59.510Z,9.30
2019-03-31T09:18:09.613Z,9.20
2019-03-31T09:22:18.955Z,9.30
2019-03-31T09:26:25.763Z,9.50
2019-03-31T09:30:29.848Z,9.30
2019-03-31T09:34:33.990Z,9.40
2019-03-31T09:38:40.476Z,9.50
2019-03-31T09:42:44.882Z,9.50
2019-03-31T09:46:49.138Z,9.60
2019-03-31T09:50:56.572Z,9.90
2019-03-31T09:55:01.198Z,10.20
2019-03-31T09:59:05.760Z,10.50
2019-03-31T10:03:09.767Z,10.60
2019-03-31T10:07:16.315Z,11.30
2019-03-31T10:11:21.414Z,12.10
2019-03-31T10:15:25.371Z,13.00
2019-03-31T10:19:32.298Z,13.40
2019-03-31T10:23:36.506Z,14.00
2019-03-31T10:27:41.081Z,14.30
2019-03-31T10:31:44.759Z,14.90
2019-03-31T10:35:50.933Z,15.00
2019-03-31T10:39:58.396Z,14.70
2019-03-31T10:44:12.506Z,15.50
2019-03-31T10:48:20.714Z,16.30
2019-03-31T10:52:25.020Z,15.80
2019-03-31T10:56:41.670Z,15.90
2019-03-31T11:00:45.797Z,16.60
2019-03-31T11:04:49.788Z,17.00
2019-03-31T11:08:53.943Z,17.30
2019-03-31T11:12:57.880Z,16.80
2019-03-31T11:17:01.699Z,17.10
2019-03-31T11:21:21.255Z,17.70
2019-03-31T11:25:29.114Z,17.70
2019-03-31T11:29:31.063Z,16.70
2019-03-31T11:33:35.201Z,17.40
2019-03-31T11:37:49.116Z,18.60
2019-03-31T11:41:53.438Z,15.90
2019-03-31T11:45:57.127Z,16.80
2019-03-31T11:50:00.968Z,16.00
2019-03-31T11:54:06.851Z,17.70
2019-03-31T11:58:13.775Z,19.30
2019-03-31T12:02:26.999Z,18.80
2019-03-31T12:06:23.595Z,18.70
2019-03-31T12:10:27.768Z,19.90
2019-03-31T12:14:36.734Z,19.00
2019-03-31T12:18:41.000Z,18.80
2019-03-31T12:22:45.137Z,19.10
2019-03-31T12:26:51.305Z,18.40
2019-03-31T12:30:55.072Z,19.20
2019-03-31T12:34:59.146Z,19.00
2019-03-31T12:39:07.591Z,19.40
2019-03-31T12:43:11.822Z,18.90
2019-03-31T12:47:15.724Z,19.20
2019-03-31T12:51:21.406Z,20.10
2019-03-31T12:55:27.565Z,19.80
2019-03-31T12:59:31.459Z,17.60
2019-03-31T13:03:38.481Z,18.70
2019-03-31T13:07:55.741Z,19.60
2019-03-31T13:11:51.071Z,20.40
2019-03-31T13:16:01.038Z,21.20
2019-03-31T13:20:05.571Z,18.80
2019-03-31T13:24:09.543Z,16.70
2019-03-31T13:28:16.735Z,16.50
2019-03-31T13:32:20.698Z,17.40
2019-03-31T13:36:27.283Z,18.10
2019-03-31T13:40:33.403Z,18.20
2019-03-31T13:44:37.581Z,18.30
2019-03-31T13:48:41.334Z,18.30
2019-03-31T13:52:47.167Z,20.20
2019-03-31T13:56:53.410Z,20.90
2019-03-31T14:00:57.671Z,20.60
2019-03-31T14:05:01.628Z,21.00
2019-03-31T14:09:08.200Z,21.60
2019-03-31T14:13:12.045Z,21.00
2019-03-31T14:17:16.074Z,21.20
2019-03-31T14:21:20.213Z,21.40
2019-03-31T14:25:36.580Z,20.20
2019-03-31T14:29:43.104Z,17.30
2019-03-31T14:33:50.155Z,16.90
2019-03-31T14:37:56.448Z,17.90
2019-03-31T14:42:00.800Z,18.70
2019-03-31T14:46:06.763Z,17.50
2019-03-31T14:50:17.546Z,16.90
2019-03-31T14:54:24.073Z,17.70
2019-03-31T14:58:28.006Z,18.30
2019-03-31T15:02:31.964Z,18.70
2019-03-31T15:06:36.254Z,19.40
2019-03-31T15:10:40.207Z,18.40
2019-03-31T15:14:44.232Z,18.30
2019-03-31T15:18:48.021Z,17.90
2019-03-31T15:22:51.715Z,17.30
2019-03-31T15:26:58.369Z,17.70
2019-03-31T15:31:02.528Z,17.00
2019-03-31T15:35:07.388Z,17.00
2019-03-31T15:39:11.217Z,15.40
2019-03-31T15:43:15.455Z,15.50
2019-03-31T15:47:19.556Z,14.70
2019-03-31T15:51:23.492Z,14.70
2019-03-31T15:55:27.239Z,14.30
2019-03-31T15:59:36.647Z,14.30
2019-03-31T16:03:42.281Z,14.10
2019-03-31T16:07:46.238Z,13.80
2019-03-31T16:11:53.984Z,13.60
2019-03-31T16:15:57.333Z,13.90
2019-03-31T16:20:04.608Z,13.80
2019-03-31T16:24:08.595Z,13.60
2019-03-31T16:28:15.452Z,13.70
2019-03-31T16:32:18.490Z,13.70
2019-03-31T16:36:24.739Z,12.90
2019-03-31T16:40:33.889Z,13.00
2019-03-31T16:44:37.493Z,13.00
2019-03-31T16:48:41.097Z,13.00
2019-03-31T16:52:44.995Z,12.90
2019-03-31T16:56:51.183Z,12.80
2019-03-31T17:00:54.430Z,12.70
2019-03-31T17:04:57.440Z,12.50
2019-03-31T17:09:00.689Z,12.30
2019-03-31T17:13:04.447Z,11.90
2019-03-31T17:17:08.365Z,12.00
2019-03-31T17:21:11.949Z,11.70
2019-03-31T17:25:34.362Z,11.30
2019-03-31T17:29:41.678Z,11.50
2019-03-31T17:33:45.489Z,11.40
2019-03-31T17:37:49.166Z,11.50
2019-03-31T17:41:52.196Z,11.40
2019-03-31T17:45:58.411Z,11.30
2019-03-31T17:50:02.115Z,11.10
2019-03-31T17:54:06.434Z,11.20
2019-03-31T17:58:09.680Z,10.90
2019-03-31T18:02:18.870Z,10.80
2019-03-31T18:06:22.605Z,10.70
2019-03-31T18:10:25.618Z,10.50
2019-03-31T18:14:28.589Z,10.30
2019-03-31T18:18:32.181Z,10.20
2019-03-31T18:22:35.827Z,10.00
2019-03-31T18:26:39.489Z,10.00
2019-03-31T18:30:45.744Z,9.80
2019-03-31T18:34:49.286Z,10.00
2019-03-31T18:38:53.265Z,10.30
2019-03-31T18:42:59.918Z,10.50
2019-03-31T18:47:03.376Z,10.30
2019-03-31T18:51:06.820Z,10.30
2019-03-31T18:55:40.807Z,10.20
2019-03-31T18:59:59.777Z,9.90
2019-03-31T19:04:33.698Z,9.80
2019-03-31T19:08:53.795Z,9.80
2019-03-31T19:13:22.906Z,9.90
2019-03-31T19:17:49.307Z,9.90
2019-03-31T19:22:11.891Z,9.40
2019-03-31T19:26:47.293Z,9.30
2019-03-31T19:30:56.343Z,9.20
2019-03-31T19:35:21.839Z,9.50
2019-03-31T19:39:56.665Z,9.10
2019-03-31T19:44:34.562Z,8.80
2019-03-31T19:48:57.533Z,9.30
2019-03-31T19:53:20.050Z,9.30
2019-03-31T19:57:41.421Z,9.00
2019-03-31T20:02:01.935Z,8.80
2019-03-31T20:06:42.717Z,8.90
2019-03-31T20:11:04.251Z,8.60
2019-03-31T20:15:26.187Z,8.10
2019-03-31T20:19:52.535Z,7.80
2019-03-31T20:24:18.263Z,7.80
2019-03-31T20:28:56.074Z,8.00
2019-03-31T20:33:37.453Z,7.70
2019-03-31T20:37:46.094Z,7.70
2019-03-31T20:42:17.403Z,7.50
2019-03-31T20:46:21.117Z,7.60
2019-03-31T20:50:28.817Z,7.60
2019-03-31T20:54:33.120Z,7.50
2019-03-31T20:58:37.168Z,7.50
2019-03-31T21:02:40.171Z,7.40
2019-03-31T21:06:46.306Z,7.40
2019-03-31T21:10:50.251Z,7.10
2019-03-31T21:14:53.281Z,6.90
2019-03-31T21:18:56.253Z,7.20
2019-03-31T21:23:00.063Z,7.10
2019-03-31T21:27:03.849Z,6.70
2019-03-31T21:31:07.207Z,6.70
2019-03-31T21:35:10.207Z,6.60
2019-03-31T21:39:16.555Z,6.20
2019-03-31T21:43:21.603Z,6.40
2019-03-31T21:47:24.601Z,6.40
2019-03-31T21:51:33.892Z,6.30
2019-03-31T21:55:36.911Z,6.30
2019-03-31T21:59:40.121Z,6.20
2019-03-31T22:03:52.805Z,6.00
2019-03-31T22:07:55.909Z,6.00
2019-03-31T22:11:59.072Z,6.50
2019-03-31T22:16:06.129Z,6.40
2019-03-31T22:20:17.919Z,5.80
2019-03-31T22:24:21.533Z,5.90
2019-03-31T22:28:24.601Z,5.90
2019-03-31T22:32:27.576Z,6.20
2019-03-31T22:36:30.783Z,5.60
2019-03-31T22:40:33.822Z,5.90
2019-03-31T22:44:40.013Z,6.10
2019-03-31T22:48:43.041Z,5.60
2019-03-31T22:52:46.044Z,5.30
2019-03-31T22:56:49.080Z,5.50
2019-03-31T23:00:54.869Z,5.20
2019-03-31T23:05:00.874Z,5.40
2019-03-31T23:09:10.055Z,5.30
2019-03-31T23:13:13.682Z,5.30
2019-03-31T23:17:19.663Z,5.40
2019-03-31T23:21:22.713Z,5.90
2019-03-31T23:25:25.742Z,6.10
2019-03-31T23:29:28.781Z,6.10
2019-03-31T23:33:31.792Z,6.10
2019-03-31T23:37:35.373Z,6.10
2019-03-31T23:41:39.069Z,6.10
2019-03-31T23:45:42.055Z,5.90
2019-03-31T23:49:45.126Z,6.00
2019-03-31T23:53:50.807Z,6.00
2019-03-31T23:57:53.803Z,5.80
